sensor_id;sensor_type;location;lat;lon;timestamp;pressure;altitude;pressure_sealevel;temperature;humidity
22580;BME280;11456;47.030;15.396;2022-11-20T00:00:08;97101.28;;;2.86;100.00
22580;BME280;11456;47.030;15.396;2022-11-20T00:02:34;97103.00;;;3.09;100.00
22580;BME280;11456;47.030;15.396;2022-11-20T00:05:01;97106.88;;;3.05;100.00
22580;BME280;11456;47.030;15.396;2022-11-20T00:07:27;97106.50;;;2.99;100.00
22580;BME280;11456;47.030;15.396;2022-11-20T00:09:54;97111.44;;;2.92;100.00
22580;BME280;11456;47.030;15.396;2022-11-20T00:12:20;97109.16;;;2.88;100.00
22580;BME280;11456;47.030;15.396;2022-11-20T00:14:47;97101.75;;;2.80;100.00
22580;BME280;11456;47.030;15.396;2022-11-20T00:17:13;97103.19;;;2.84;100.00
22580;BME280;11456;47.030;15.396;2022-11-20T00:19:40;97110.81;;;2.77;100.00
22580;BME280;11456;47.030;15.396;2022-11-20T00:22:06;97124.00;;;2.90;100.00
22580;BME280;11456;47.030;15.396;2022-11-20T00:24:33;97125.97;;;3.10;100.00
22580;BME280;11456;47.030;15.396;2022-11-20T00:27:08;97129.81;;;2.95;100.00
22580;BME280;11456;47.030;15.396;2022-11-20T00:29:35;97134.63;;;2.90;100.00
22580;BME280;11456;47.030;15.396;2022-11-20T00:32:01;97136.81;;;2.85;100.00
22580;BME280;11456;47.030;15.396;2022-11-20T00:34:28;97139.75;;;2.93;100.00
22580;BME280;11456;47.030;15.396;2022-11-20T00:36:54;97139.97;;;2.90;100.00
22580;BME280;11456;47.030;15.396;2022-11-20T00:39:21;97140.81;;;2.91;100.00
22580;BME280;11456;47.030;15.396;2022-11-20T00:41:48;97146.03;;;3.03;100.00
22580;BME280;11456;47.030;15.396;2022-11-20T00:44:14;97142.13;;;2.74;100.00
22580;BME280;11456;47.030;15.396;2022-11-20T00:46:41;97137.09;;;2.58;100.00
22580;BME280;11456;47.030;15.396;2022-11-20T00:49:07;97138.72;;;2.83;100.00
22580;BME280;11456;47.030;15.396;2022-11-20T00:51:34;97128.47;;;2.90;100.00
22580;BME280;11456;47.030;15.396;2022-11-20T00:54:00;97135.38;;;2.92;100.00
22580;BME280;11456;47.030;15.396;2022-11-20T00:56:28;97142.25;;;2.95;100.00
22580;BME280;11456;47.030;15.396;2022-11-20T00:58:55;97155.53;;;2.83;100.00
22580;BME280;11456;47.030;15.396;2022-11-20T01:01:22;97158.78;;;2.76;100.00
22580;BME280;11456;47.030;15.396;2022-11-20T01:03:53;97155.16;;;2.77;100.00
22580;BME280;11456;47.030;15.396;2022-11-20T01:06:21;97166.56;;;2.90;100.00
22580;BME280;11456;47.030;15.396;2022-11-20T01:08:49;97161.28;;;3.12;100.00
22580;BME280;11456;47.030;15.396;2022-11-20T01:11:17;97152.22;;;3.15;100.00
22580;BME280;11456;47.030;15.396;2022-11-20T01:13:45;97156.06;;;3.00;100.00
22580;BME280;11456;47.030;15.396;2022-11-20T01:16:25;97152.31;;;3.02;100.00
22580;BME280;11456;47.030;15.396;2022-11-20T01:18:53;97154.03;;;3.14;100.00
22580;BME280;11456;47.030;15.396;2022-11-20T01:21:21;97150.28;;;3.28;100.00
22580;BME280;11456;47.030;15.396;2022-11-20T01:23:48;97158.38;;;3.27;100.00
22580;BME280;11456;47.030;15.396;2022-11-20T01:26:17;97139.28;;;3.21;100.00
22580;BME280;11456;47.030;15.396;2022-11-20T01:28:44;97141.97;;;3.33;100.00
22580;BME280;11456;47.030;15.396;2022-11-20T01:31:29;97153.06;;;3.27;100.00
22580;BME280;11456;47.030;15.396;2022-11-20T01:33:57;97150.19;;;3.30;100.00
22580;BME280;11456;47.030;15.396;2022-11-20T01:36:25;97153.31;;;3.23;100.00
22580;BME280;11456;47.030;15.396;2022-11-20T01:38:55;97158.88;;;3.20;100.00
22580;BME280;11456;47.030;15.396;2022-11-20T01:41:23;97155.59;;;3.06;100.00
22580;BME280;11456;47.030;15.396;2022-11-20T01:44:09;97156.94;;;3.22;100.00
22580;BME280;11456;47.030;15.396;2022-11-20T01:46:38;97168.28;;;3.02;100.00
22580;BME280;11456;47.030;15.396;2022-11-20T01:49:08;97151.88;;;3.19;100.00
22580;BME280;11456;47.030;15.396;2022-11-20T01:54:23;97159.22;;;3.05;100.00
22580;BME280;11456;47.030;15.396;2022-11-20T01:56:52;97150.75;;;3.00;100.00
22580;BME280;11456;47.030;15.396;2022-11-20T01:59:20;97143.63;;;3.11;100.00
22580;BME280;11456;47.030;15.396;2022-11-20T02:01:49;97144.97;;;3.06;100.00
22580;BME280;11456;47.030;15.396;2022-11-20T02:04:15;97138.78;;;3.05;100.00
22580;BME280;11456;47.030;15.396;2022-11-20T02:06:47;97142.69;;;3.23;100.00
22580;BME280;11456;47.030;15.396;2022-11-20T02:09:15;97134.44;;;3.27;100.00
22580;BME280;11456;47.030;15.396;2022-11-20T02:11:41;97141.22;;;3.19;100.00
22580;BME280;11456;47.030;15.396;2022-11-20T02:14:08;97143.16;;;3.17;100.00
22580;BME280;11456;47.030;15.396;2022-11-20T02:16:45;97142.41;;;3.27;100.00
22580;BME280;11456;47.030;15.396;2022-11-20T02:19:29;97139.28;;;3.21;100.00
22580;BME280;11456;47.030;15.396;2022-11-20T02:22:05;97141.94;;;2.99;100.00
22580;BME280;11456;47.030;15.396;2022-11-20T02:24:34;97139.28;;;3.10;100.00
22580;BME280;11456;47.030;15.396;2022-11-20T02:27:02;97143.38;;;3.14;100.00
22580;BME280;11456;47.030;15.396;2022-11-20T02:31:56;97133.69;;;2.91;100.00
22580;BME280;11456;47.030;15.396;2022-11-20T02:34:24;97142.63;;;3.01;100.00
22580;BME280;11456;47.030;15.396;2022-11-20T02:36:50;97138.31;;;3.11;100.00
22580;BME280;11456;47.030;15.396;2022-11-20T02:39:18;97137.00;;;3.17;100.00
22580;BME280;11456;47.030;15.396;2022-11-20T02:41:46;97131.25;;;2.88;100.00
22580;BME280;11456;47.030;15.396;2022-11-20T02:44:12;97130.19;;;2.91;100.00
22580;BME280;11456;47.030;15.396;2022-11-20T02:46:39;97130.31;;;3.00;100.00
22580;BME280;11456;47.030;15.396;2022-11-20T02:49:05;97125.38;;;3.07;100.00
22580;BME280;11456;47.030;15.396;2022-11-20T02:51:32;97123.78;;;3.04;100.00
22580;BME280;11456;47.030;15.396;2022-11-20T02:53:58;97115.34;;;3.10;100.00
22580;BME280;11456;47.030;15.396;2022-11-20T02:56:25;97105.78;;;3.30;100.00
22580;BME280;11456;47.030;15.396;2022-11-20T02:58:51;97103.25;;;3.29;100.00
22580;BME280;11456;47.030;15.396;2022-11-20T03:01:18;97102.03;;;3.21;100.00
22580;BME280;11456;47.030;15.396;2022-11-20T03:03:45;97098.41;;;3.22;100.00
22580;BME280;11456;47.030;15.396;2022-11-20T03:06:12;97108.09;;;3.12;100.00
22580;BME280;11456;47.030;15.396;2022-11-20T03:08:38;97097.19;;;2.93;100.00
22580;BME280;11456;47.030;15.396;2022-11-20T03:11:05;97104.81;;;3.09;100.00
22580;BME280;11456;47.030;15.396;2022-11-20T03:13:33;97108.09;;;3.12;100.00
22580;BME280;11456;47.030;15.396;2022-11-20T03:16:33;97118.84;;;3.11;100.00
22580;BME280;11456;47.030;15.396;2022-11-20T03:18:52;97116.19;;;3.44;100.00
22580;BME280;11456;47.030;15.396;2022-11-20T03:21:19;97106.88;;;3.50;100.00
22580;BME280;11456;47.030;15.396;2022-11-20T03:23:45;97109.50;;;3.61;99.90
22580;BME280;11456;47.030;15.396;2022-11-20T03:26:14;97109.91;;;3.45;100.00
22580;BME280;11456;47.030;15.396;2022-11-20T03:28:42;97110.25;;;3.41;100.00
22580;BME280;11456;47.030;15.396;2022-11-20T03:31:10;97109.50;;;3.72;100.00
22580;BME280;11456;47.030;15.396;2022-11-20T03:33:37;97108.66;;;3.60;100.00
22580;BME280;11456;47.030;15.396;2022-11-20T03:36:04;97107.72;;;3.50;100.00
22580;BME280;11456;47.030;15.396;2022-11-20T03:38:32;97098.16;;;3.48;100.00
22580;BME280;11456;47.030;15.396;2022-11-20T03:40:59;97104.44;;;3.36;100.00
22580;BME280;11456;47.030;15.396;2022-11-20T03:43:27;97106.75;;;3.18;100.00
22580;BME280;11456;47.030;15.396;2022-11-20T03:45:54;97113.16;;;3.15;100.00
22580;BME280;11456;47.030;15.396;2022-11-20T03:48:20;97107.84;;;3.15;100.00
22580;BME280;11456;47.030;15.396;2022-11-20T03:50:47;97097.66;;;3.09;100.00
22580;BME280;11456;47.030;15.396;2022-11-20T03:53:14;97099.75;;;3.17;100.00
22580;BME280;11456;47.030;15.396;2022-11-20T03:55:41;97093.69;;;3.37;100.00
22580;BME280;11456;47.030;15.396;2022-11-20T03:58:08;97096.09;;;3.29;100.00
22580;BME280;11456;47.030;15.396;2022-11-20T04:00:34;97096.22;;;3.28;100.00
22580;BME280;11456;47.030;15.396;2022-11-20T04:03:01;97088.03;;;3.19;100.00
22580;BME280;11456;47.030;15.396;2022-11-20T04:05:28;97085.69;;;3.15;100.00
22580;BME280;11456;47.030;15.396;2022-11-20T04:07:54;97085.34;;;3.31;100.00
22580;BME280;11456;47.030;15.396;2022-11-20T04:10:21;97090.44;;;3.45;100.00
22580;BME280;11456;47.030;15.396;2022-11-20T04:12:47;97083.38;;;3.55;100.00
22580;BME280;11456;47.030;15.396;2022-11-20T04:15:13;97079.78;;;3.34;100.00
22580;BME280;11456;47.030;15.396;2022-11-20T04:17:40;97089.94;;;3.29;100.00
22580;BME280;11456;47.030;15.396;2022-11-20T04:20:07;97077.84;;;3.25;100.00
22580;BME280;11456;47.030;15.396;2022-11-20T04:22:33;97084.63;;;3.06;100.00
22580;BME280;11456;47.030;15.396;2022-11-20T04:25:00;97073.84;;;3.08;100.00
22580;BME280;11456;47.030;15.396;2022-11-20T04:27:26;97068.91;;;3.37;100.00
22580;BME280;11456;47.030;15.396;2022-11-20T04:29:53;97070.34;;;3.30;100.00
22580;BME280;11456;47.030;15.396;2022-11-20T04:32:19;97078.81;;;3.23;100.00
22580;BME280;11456;47.030;15.396;2022-11-20T04:34:45;97074.69;;;3.31;100.00
22580;BME280;11456;47.030;15.396;2022-11-20T04:37:12;97072.03;;;3.42;100.00
22580;BME280;11456;47.030;15.396;2022-11-20T04:39:39;97065.63;;;3.22;100.00
22580;BME280;11456;47.030;15.396;2022-11-20T04:42:05;97067.22;;;3.13;100.00
22580;BME280;11456;47.030;15.396;2022-11-20T04:44:50;97067.81;;;3.17;100.00
22580;BME280;11456;47.030;15.396;2022-11-20T04:47:17;97052.31;;;3.33;100.00
22580;BME280;11456;47.030;15.396;2022-11-20T04:49:43;97055.09;;;3.09;100.00
22580;BME280;11456;47.030;15.396;2022-11-20T04:52:10;97068.91;;;3.03;100.00
22580;BME280;11456;47.030;15.396;2022-11-20T04:54:36;97054.00;;;2.90;100.00
22580;BME280;11456;47.030;15.396;2022-11-20T04:57:03;97052.44;;;2.98;100.00
22580;BME280;11456;47.030;15.396;2022-11-20T04:59:29;97056.06;;;2.75;100.00
22580;BME280;11456;47.030;15.396;2022-11-20T05:01:56;97059.19;;;2.69;100.00
22580;BME280;11456;47.030;15.396;2022-11-20T05:04:22;97056.66;;;2.78;100.00
22580;BME280;11456;47.030;15.396;2022-11-20T05:06:49;97053.16;;;2.89;100.00
22580;BME280;11456;47.030;15.396;2022-11-20T05:09:16;97053.91;;;3.02;100.00
22580;BME280;11456;47.030;15.396;2022-11-20T05:11:42;97054.84;;;3.01;100.00
22580;BME280;11456;47.030;15.396;2022-11-20T05:14:12;97057.53;;;3.01;100.00
22580;BME280;11456;47.030;15.396;2022-11-20T05:16:39;97067.44;;;3.10;100.00
22580;BME280;11456;47.030;15.396;2022-11-20T05:19:05;97055.38;;;3.06;100.00
22580;BME280;11456;47.030;15.396;2022-11-20T05:21:31;97047.59;;;3.14;100.00
22580;BME280;11456;47.030;15.396;2022-11-20T05:23:58;97054.53;;;3.06;100.00
22580;BME280;11456;47.030;15.396;2022-11-20T05:26:25;97056.69;;;3.23;100.00
22580;BME280;11456;47.030;15.396;2022-11-20T05:28:51;97047.59;;;3.14;100.00
22580;BME280;11456;47.030;15.396;2022-11-20T05:31:19;97055.34;;;3.29;100.00
22580;BME280;11456;47.030;15.396;2022-11-20T05:33:52;97047.53;;;3.59;100.00
22580;BME280;11456;47.030;15.396;2022-11-20T05:36:19;97051.00;;;3.16;100.00
22580;BME280;11456;47.030;15.396;2022-11-20T05:38:45;97056.06;;;2.97;100.00
22580;BME280;11456;47.030;15.396;2022-11-20T05:41:16;97051.25;;;3.02;100.00
22580;BME280;11456;47.030;15.396;2022-11-20T05:43:44;97059.22;;;3.02;100.00
22580;BME280;11456;47.030;15.396;2022-11-20T05:46:12;97057.28;;;3.04;100.00
22580;BME280;11456;47.030;15.396;2022-11-20T05:48:39;97062.34;;;3.07;100.00
22580;BME280;11456;47.030;15.396;2022-11-20T05:51:07;97073.72;;;2.98;100.00
22580;BME280;11456;47.030;15.396;2022-11-20T05:53:34;97068.53;;;3.08;100.00
22580;BME280;11456;47.030;15.396;2022-11-20T05:56:02;97072.53;;;3.13;100.00
22580;BME280;11456;47.030;15.396;2022-11-20T05:58:30;97081.34;;;3.14;100.00
22580;BME280;11456;47.030;15.396;2022-11-20T06:01:09;97081.13;;;3.06;100.00
22580;BME280;11456;47.030;15.396;2022-11-20T06:03:37;97073.97;;;2.95;100.00
22580;BME280;11456;47.030;15.396;2022-11-20T06:06:04;97081.00;;;3.18;100.00
22580;BME280;11456;47.030;15.396;2022-11-20T06:08:31;97071.06;;;3.32;100.00
22580;BME280;11456;47.030;15.396;2022-11-20T06:10:58;97067.31;;;3.34;100.00
22580;BME280;11456;47.030;15.396;2022-11-20T06:13:24;97078.09;;;3.33;100.00
22580;BME280;11456;47.030;15.396;2022-11-20T06:15:51;97081.00;;;3.18;100.00
22580;BME280;11456;47.030;15.396;2022-11-20T06:18:18;97087.66;;;3.13;100.00
22580;BME280;11456;47.030;15.396;2022-11-20T06:20:45;97083.88;;;3.04;100.00
22580;BME280;11456;47.030;15.396;2022-11-20T06:23:12;97083.06;;;3.26;100.00
22580;BME280;11456;47.030;15.396;2022-11-20T06:25:39;97088.03;;;3.19;100.00
22580;BME280;11456;47.030;15.396;2022-11-20T06:28:06;97095.75;;;3.11;100.00
22580;BME280;11456;47.030;15.396;2022-11-20T06:30:33;97089.69;;;3.20;100.00
22580;BME280;11456;47.030;15.396;2022-11-20T06:32:59;97100.69;;;3.27;100.00
22580;BME280;11456;47.030;15.396;2022-11-20T06:35:26;97090.91;;;3.28;100.00
22580;BME280;11456;47.030;15.396;2022-11-20T06:37:52;97087.28;;;3.51;100.00
22580;BME280;11456;47.030;15.396;2022-11-20T06:40:19;97101.78;;;3.47;100.00
22580;BME280;11456;47.030;15.396;2022-11-20T06:42:45;97113.66;;;3.43;100.00
22580;BME280;11456;47.030;15.396;2022-11-20T06:45:12;97108.09;;;3.57;100.00
22580;BME280;11456;47.030;15.396;2022-11-20T06:47:38;97111.22;;;3.62;100.00
22580;BME280;11456;47.030;15.396;2022-11-20T06:50:05;97113.16;;;3.38;100.00
22580;BME280;11456;47.030;15.396;2022-11-20T06:52:32;97120.91;;;3.52;100.00
22580;BME280;11456;47.030;15.396;2022-11-20T06:54:59;97117.75;;;3.69;100.00
22580;BME280;11456;47.030;15.396;2022-11-20T06:57:25;97113.38;;;3.68;100.00
22580;BME280;11456;47.030;15.396;2022-11-20T06:59:52;97113.00;;;3.73;100.00
22580;BME280;11456;47.030;15.396;2022-11-20T07:02:18;97109.97;;;3.88;100.00
22580;BME280;11456;47.030;15.396;2022-11-20T07:04:44;97113.81;;;3.95;100.00
22580;BME280;11456;47.030;15.396;2022-11-20T07:07:11;97115.94;;;3.70;100.00
22580;BME280;11456;47.030;15.396;2022-11-20T07:09:37;97116.00;;;4.01;100.00
22580;BME280;11456;47.030;15.396;2022-11-20T07:12:04;97122.47;;;3.77;100.00
22580;BME280;11456;47.030;15.396;2022-11-20T07:14:31;97128.88;;;3.63;100.00
22580;BME280;11456;47.030;15.396;2022-11-20T07:16:57;97134.44;;;3.60;100.00
22580;BME280;11456;47.030;15.396;2022-11-20T07:19:24;97135.16;;;3.73;100.00
22580;BME280;11456;47.030;15.396;2022-11-20T07:21:50;97132.03;;;3.68;100.00
22580;BME280;11456;47.030;15.396;2022-11-20T07:24:16;97127.25;;;3.94;100.00
22580;BME280;11456;47.030;15.396;2022-11-20T07:26:45;97135.00;;;4.08;100.00
22580;BME280;11456;47.030;15.396;2022-11-20T07:29:12;97141.16;;;3.97;100.00
22580;BME280;11456;47.030;15.396;2022-11-20T07:31:38;97143.38;;;3.92;100.00
22580;BME280;11456;47.030;15.396;2022-11-20T07:34:05;97146.75;;;3.94;100.00
22580;BME280;11456;47.030;15.396;2022-11-20T07:36:31;97146.22;;;4.12;100.00
22580;BME280;11456;47.030;15.396;2022-11-20T07:38:58;97143.59;;;4.00;100.00
22580;BME280;11456;47.030;15.396;2022-11-20T07:41:24;97136.34;;;4.02;100.00
22580;BME280;11456;47.030;15.396;2022-11-20T07:43:51;97140.91;;;4.12;100.00
22580;BME280;11456;47.030;15.396;2022-11-20T07:46:17;97141.75;;;4.12;100.00
22580;BME280;11456;47.030;15.396;2022-11-20T07:48:44;97147.19;;;4.22;100.00
22580;BME280;11456;47.030;15.396;2022-11-20T07:51:10;97143.88;;;4.29;100.00
22580;BME280;11456;47.030;15.396;2022-11-20T07:53:37;97148.13;;;4.32;100.00
22580;BME280;11456;47.030;15.396;2022-11-20T07:56:03;97146.06;;;4.56;100.00
22580;BME280;11456;47.030;15.396;2022-11-20T07:58:30;97150.50;;;4.46;99.49
22580;BME280;11456;47.030;15.396;2022-11-20T08:01:02;97162.69;;;4.28;99.74
22580;BME280;11456;47.030;15.396;2022-11-20T08:03:29;97164.09;;;4.32;100.00
22580;BME280;11456;47.030;15.396;2022-11-20T08:05:58;97165.53;;;4.47;100.00
22580;BME280;11456;47.030;15.396;2022-11-20T08:08:25;97158.94;;;4.19;100.00
22580;BME280;11456;47.030;15.396;2022-11-20T08:10:51;97155.19;;;4.11;100.00
22580;BME280;11456;47.030;15.396;2022-11-20T08:13:18;97159.59;;;4.43;100.00
22580;BME280;11456;47.030;15.396;2022-11-20T08:16:03;97168.34;;;4.23;100.00
22580;BME280;11456;47.030;15.396;2022-11-20T08:18:30;97172.84;;;4.34;100.00
22580;BME280;11456;47.030;15.396;2022-11-20T08:21:01;97168.75;;;4.19;100.00
22580;BME280;11456;47.030;15.396;2022-11-20T08:23:28;97166.34;;;4.04;100.00
22580;BME280;11456;47.030;15.396;2022-11-20T08:25:54;97179.13;;;4.33;100.00
22580;BME280;11456;47.030;15.396;2022-11-20T08:28:21;97176.66;;;4.52;100.00
22580;BME280;11456;47.030;15.396;2022-11-20T08:30:48;97173.19;;;4.72;99.95
22580;BME280;11456;47.030;15.396;2022-11-20T08:33:15;97181.19;;;4.61;99.52
22580;BME280;11456;47.030;15.396;2022-11-20T08:35:43;97180.09;;;4.32;100.00
22580;BME280;11456;47.030;15.396;2022-11-20T08:38:10;97177.38;;;4.75;100.00
22580;BME280;11456;47.030;15.396;2022-11-20T08:40:36;97181.47;;;4.90;100.00
22580;BME280;11456;47.030;15.396;2022-11-20T08:43:03;97185.69;;;4.93;99.61
22580;BME280;11456;47.030;15.396;2022-11-20T08:45:30;97185.84;;;4.48;99.18
22580;BME280;11456;47.030;15.396;2022-11-20T08:48:00;97192.31;;;4.46;100.00
22580;BME280;11456;47.030;15.396;2022-11-20T08:50:27;97194.16;;;4.34;100.00
22580;BME280;11456;47.030;15.396;2022-11-20T08:52:54;97184.19;;;5.20;99.55
22580;BME280;11456;47.030;15.396;2022-11-20T08:55:21;97190.38;;;4.79;98.91
22580;BME280;11456;47.030;15.396;2022-11-20T08:57:47;97189.41;;;4.69;99.99
22580;BME280;11456;47.030;15.396;2022-11-20T09:00:16;97195.38;;;4.62;99.85
22580;BME280;11456;47.030;15.396;2022-11-20T09:02:43;97197.88;;;4.42;100.00
22580;BME280;11456;47.030;15.396;2022-11-20T09:05:09;97195.53;;;4.60;100.00
22580;BME280;11456;47.030;15.396;2022-11-20T09:07:35;97199.50;;;4.98;99.53
22580;BME280;11456;47.030;15.396;2022-11-20T09:10:02;97196.03;;;4.86;100.00
22580;BME280;11456;47.030;15.396;2022-11-20T09:12:49;97198.47;;;5.10;100.00
22580;BME280;11456;47.030;15.396;2022-11-20T09:15:17;97189.81;;;5.69;96.97
22580;BME280;11456;47.030;15.396;2022-11-20T09:17:58;97194.03;;;5.20;98.63
22580;BME280;11456;47.030;15.396;2022-11-20T09:20:25;97196.25;;;5.36;99.41
22580;BME280;11456;47.030;15.396;2022-11-20T09:22:52;97185.97;;;5.31;98.83
22580;BME280;11456;47.030;15.396;2022-11-20T09:25:19;97185.16;;;5.40;98.41
22580;BME280;11456;47.030;15.396;2022-11-20T09:27:45;97192.72;;;5.35;98.89
22580;BME280;11456;47.030;15.396;2022-11-20T09:30:13;97188.22;;;5.15;99.22
22580;BME280;11456;47.030;15.396;2022-11-20T09:32:39;97189.19;;;5.14;99.44
22580;BME280;11456;47.030;15.396;2022-11-20T09:35:06;97187.91;;;5.29;100.00
22580;BME280;11456;47.030;15.396;2022-11-20T09:37:33;97186.88;;;5.51;100.00
22580;BME280;11456;47.030;15.396;2022-11-20T09:39:59;97190.88;;;5.87;99.83
22580;BME280;11456;47.030;15.396;2022-11-20T09:42:45;97183.31;;;5.92;97.88
22580;BME280;11456;47.030;15.396;2022-11-20T09:50:32;97173.06;;;5.87;97.91
22580;BME280;11456;47.030;15.396;2022-11-20T09:55:28;97176.38;;;5.29;99.86
22580;BME280;11456;47.030;15.396;2022-11-20T09:57:55;97170.19;;;5.28;100.00
22580;BME280;11456;47.030;15.396;2022-11-20T10:00:24;97168.25;;;5.60;98.87
22580;BME280;11456;47.030;15.396;2022-11-20T10:10:40;97168.44;;;6.87;97.42
22580;BME280;11456;47.030;15.396;2022-11-20T10:13:47;97154.50;;;7.49;92.46
22580;BME280;11456;47.030;15.396;2022-11-20T10:16:06;97150.50;;;7.26;90.13
22580;BME280;11456;47.030;15.396;2022-11-20T10:23:54;97155.66;;;7.47;91.71
22580;BME280;11456;47.030;15.396;2022-11-20T10:31:33;97141.28;;;7.48;90.83
22580;BME280;11456;47.030;15.396;2022-11-20T10:34:01;97142.00;;;7.31;90.08
22580;BME280;11456;47.030;15.396;2022-11-20T10:36:43;97135.84;;;7.67;88.59
22580;BME280;11456;47.030;15.396;2022-11-20T10:39:19;97136.97;;;7.74;89.32
22580;BME280;11456;47.030;15.396;2022-11-20T10:41:49;97142.00;;;7.77;88.24
22580;BME280;11456;47.030;15.396;2022-11-20T10:44:19;97146.16;;;7.15;89.60
22580;BME280;11456;47.030;15.396;2022-11-20T10:47:05;97139.59;;;7.47;90.04
22580;BME280;11456;47.030;15.396;2022-11-20T10:49:36;97138.94;;;7.72;89.03
22580;BME280;11456;47.030;15.396;2022-11-20T10:54:36;97133.06;;;7.59;87.53
22580;BME280;11456;47.030;15.396;2022-11-20T10:57:26;97136.25;;;7.25;88.48
22580;BME280;11456;47.030;15.396;2022-11-20T11:04:54;97131.97;;;8.06;84.20
22580;BME280;11456;47.030;15.396;2022-11-20T11:07:27;97134.38;;;7.82;86.06
22580;BME280;11456;47.030;15.396;2022-11-20T11:09:57;97124.00;;;8.24;85.43
22580;BME280;11456;47.030;15.396;2022-11-20T11:12:24;97132.19;;;8.68;86.23
22580;BME280;11456;47.030;15.396;2022-11-20T11:14:52;97132.69;;;8.09;85.79
22580;BME280;11456;47.030;15.396;2022-11-20T11:17:21;97131.06;;;8.25;85.89
22580;BME280;11456;47.030;15.396;2022-11-20T11:19:58;97136.06;;;8.11;86.55
22580;BME280;11456;47.030;15.396;2022-11-20T11:22:24;97130.13;;;8.44;84.65
22580;BME280;11456;47.030;15.396;2022-11-20T11:24:51;97125.81;;;8.51;85.37
22580;BME280;11456;47.030;15.396;2022-11-20T11:27:18;97125.13;;;9.02;83.36
22580;BME280;11456;47.030;15.396;2022-11-20T11:29:45;97125.53;;;9.15;83.91
22580;BME280;11456;47.030;15.396;2022-11-20T11:32:13;97135.56;;;9.83;81.34
22580;BME280;11456;47.030;15.396;2022-11-20T11:34:40;97120.16;;;9.41;80.10
22580;BME280;11456;47.030;15.396;2022-11-20T11:37:12;97116.59;;;9.07;80.09
22580;BME280;11456;47.030;15.396;2022-11-20T11:39:40;97120.06;;;9.51;81.66
22580;BME280;11456;47.030;15.396;2022-11-20T11:42:07;97114.16;;;10.49;74.10
22580;BME280;11456;47.030;15.396;2022-11-20T11:44:43;97116.72;;;10.91;72.20
22580;BME280;11456;47.030;15.396;2022-11-20T11:53:03;97115.69;;;10.68;70.76
22580;BME280;11456;47.030;15.396;2022-11-20T11:55:33;97104.69;;;11.83;65.93
22580;BME280;11456;47.030;15.396;2022-11-20T11:58:08;97102.47;;;11.86;65.06
22580;BME280;11456;47.030;15.396;2022-11-20T12:00:36;97100.06;;;11.91;69.24
22580;BME280;11456;47.030;15.396;2022-11-20T12:03:07;97098.34;;;12.07;65.59
22580;BME280;11456;47.030;15.396;2022-11-20T12:05:37;97099.59;;;12.27;64.32
22580;BME280;11456;47.030;15.396;2022-11-20T12:08:06;97096.88;;;12.35;64.93
22580;BME280;11456;47.030;15.396;2022-11-20T12:13:12;97104.69;;;11.66;66.75
22580;BME280;11456;47.030;15.396;2022-11-20T12:15:42;97097.78;;;11.64;65.69
22580;BME280;11456;47.030;15.396;2022-11-20T12:18:14;97101.38;;;12.03;63.52
22580;BME280;11456;47.030;15.396;2022-11-20T12:20:42;97097.03;;;11.94;63.53
22580;BME280;11456;47.030;15.396;2022-11-20T12:23:21;97099.22;;;11.19;63.80
22580;BME280;11456;47.030;15.396;2022-11-20T12:25:52;97095.09;;;11.56;64.63
22580;BME280;11456;47.030;15.396;2022-11-20T12:36:19;97088.66;;;11.65;64.13
22580;BME280;11456;47.030;15.396;2022-11-20T12:52:48;97085.88;;;11.02;66.13
22580;BME280;11456;47.030;15.396;2022-11-20T12:55:20;97087.63;;;11.90;63.14
22580;BME280;11456;47.030;15.396;2022-11-20T12:57:58;97074.31;;;11.81;63.01
22580;BME280;11456;47.030;15.396;2022-11-20T13:00:27;97081.47;;;11.49;64.25
22580;BME280;11456;47.030;15.396;2022-11-20T13:03:41;97082.44;;;12.20;62.17
22580;BME280;11456;47.030;15.396;2022-11-20T13:05:59;97079.91;;;11.63;63.56
22580;BME280;11456;47.030;15.396;2022-11-20T13:08:34;97080.22;;;12.54;62.80
22580;BME280;11456;47.030;15.396;2022-11-20T13:11:04;97079.59;;;12.44;62.85
22580;BME280;11456;47.030;15.396;2022-11-20T13:13:43;97075.91;;;12.06;62.93
22580;BME280;11456;47.030;15.396;2022-11-20T13:18:41;97073.72;;;12.10;63.54
22580;BME280;11456;47.030;15.396;2022-11-20T13:21:15;97075.03;;;12.14;62.78
22580;BME280;11456;47.030;15.396;2022-11-20T13:23:42;97065.66;;;11.93;65.55
22580;BME280;11456;47.030;15.396;2022-11-20T13:26:16;97063.25;;;12.37;64.74
22580;BME280;11456;47.030;15.396;2022-11-20T13:28:44;97070.53;;;12.82;61.89
22580;BME280;11456;47.030;15.396;2022-11-20T13:31:24;97073.22;;;12.37;62.78
22580;BME280;11456;47.030;15.396;2022-11-20T13:33:54;97075.53;;;11.62;64.38
22580;BME280;11456;47.030;15.396;2022-11-20T13:36:22;97071.38;;;11.35;65.91
22580;BME280;11456;47.030;15.396;2022-11-20T13:38:50;97063.44;;;11.42;65.16
22580;BME280;11456;47.030;15.396;2022-11-20T13:41:24;97061.38;;;11.60;65.55
22580;BME280;11456;47.030;15.396;2022-11-20T13:43:57;97068.16;;;11.40;64.92
22580;BME280;11456;47.030;15.396;2022-11-20T13:46:34;97067.84;;;11.26;66.93
22580;BME280;11456;47.030;15.396;2022-11-20T13:49:05;97059.78;;;11.18;66.93
22580;BME280;11456;47.030;15.396;2022-11-20T13:51:38;97063.81;;;11.39;67.39
22580;BME280;11456;47.030;15.396;2022-11-20T13:54:22;97058.03;;;11.50;66.89
22580;BME280;11456;47.030;15.396;2022-11-20T14:02:14;97068.19;;;10.42;74.14
22580;BME280;11456;47.030;15.396;2022-11-20T14:04:42;97065.75;;;10.15;76.36
22580;BME280;11456;47.030;15.396;2022-11-20T14:07:09;97072.38;;;10.45;75.71
22580;BME280;11456;47.030;15.396;2022-11-20T14:09:36;97065.94;;;9.72;78.32
22580;BME280;11456;47.030;15.396;2022-11-20T14:12:03;97060.94;;;9.85;78.13
22580;BME280;11456;47.030;15.396;2022-11-20T14:14:30;97056.22;;;9.87;78.09
22580;BME280;11456;47.030;15.396;2022-11-20T14:19:44;97051.28;;;10.16;77.12